Gurney, Wisconsin
Current Conditions -  °F | °C
As of 2:35 AM on Friday 19 Dec 2014 (Local Time) from KIWD Reporting Station
Scattered Clouds Scattered Clouds  
Wind Chill:   Ceiling: Unl
Heat Index:   Visibility: 1.5mi
Dew Point:   Wind: 3mph
Humidity: 92%   Direction: 120°ESE
Pressure: 30.23"   Gusts: NA
Location:  46.4902°N, 90.4521°W
Report Text: KIWD 190835Z AUTO 12003KT 1 1/2SM SCT023 M16/M17 A3023 RMK AO1
Loading
Personal Weather Stations






























Interactive Weather Map New forecast layout! Learn more

10-Day Weather Forecast

Advertisements
Track Severe Weather on mobile